sensor_id;sensor_type;location;lat;lon;timestamp;P1;durP1;ratioP1;P2;durP2;ratioP2
29030;SDS011;16122;50.236;11.734;2024-03-17T00:01:37;0.93;;;0.93;;
29030;SDS011;16122;50.236;11.734;2024-03-17T00:04:06;1.17;;;0.87;;
29030;SDS011;16122;50.236;11.734;2024-03-17T00:06:32;1.00;;;0.90;;
29030;SDS011;16122;50.236;11.734;2024-03-17T00:08:58;3.80;;;1.57;;
29030;SDS011;16122;50.236;11.734;2024-03-17T00:11:24;1.47;;;1.20;;
29030;SDS011;16122;50.236;11.734;2024-03-17T00:13:50;0.97;;;0.80;;
29030;SDS011;16122;50.236;11.734;2024-03-17T00:16:16;0.87;;;0.87;;
29030;SDS011;16122;50.236;11.734;2024-03-17T00:18:45;2.00;;;0.90;;
29030;SDS011;16122;50.236;11.734;2024-03-17T00:21:13;2.20;;;1.00;;
29030;SDS011;16122;50.236;11.734;2024-03-17T00:23:39;1.00;;;1.00;;
29030;SDS011;16122;50.236;11.734;2024-03-17T00:26:05;1.07;;;1.00;;
29030;SDS011;16122;50.236;11.734;2024-03-17T00:28:31;1.10;;;0.93;;
29030;SDS011;16122;50.236;11.734;2024-03-17T00:30:56;1.57;;;1.37;;
29030;SDS011;16122;50.236;11.734;2024-03-17T00:33:22;0.90;;;0.90;;
29030;SDS011;16122;50.236;11.734;2024-03-17T00:35:49;1.93;;;1.10;;
29030;SDS011;16122;50.236;11.734;2024-03-17T00:38:16;1.93;;;1.30;;
29030;SDS011;16122;50.236;11.734;2024-03-17T00:40:42;1.47;;;1.33;;
29030;SDS011;16122;50.236;11.734;2024-03-17T00:43:10;2.10;;;1.47;;
29030;SDS011;16122;50.236;11.734;2024-03-17T00:45:36;2.43;;;1.47;;
29030;SDS011;16122;50.236;11.734;2024-03-17T00:48:02;2.87;;;1.80;;
29030;SDS011;16122;50.236;11.734;2024-03-17T00:50:30;1.97;;;1.80;;
29030;SDS011;16122;50.236;11.734;2024-03-17T00:52:56;2.57;;;1.43;;
29030;SDS011;16122;50.236;11.734;2024-03-17T00:55:22;1.50;;;1.30;;
29030;SDS011;16122;50.236;11.734;2024-03-17T00:57:48;3.10;;;2.00;;
29030;SDS011;16122;50.236;11.734;2024-03-17T01:00:13;1.73;;;1.60;;
29030;SDS011;16122;50.236;11.734;2024-03-17T01:02:40;2.90;;;1.50;;
29030;SDS011;16122;50.236;11.734;2024-03-17T01:05:07;4.73;;;1.57;;
29030;SDS011;16122;50.236;11.734;2024-03-17T01:07:34;2.13;;;1.30;;
29030;SDS011;16122;50.236;11.734;2024-03-17T01:10:00;1.40;;;1.30;;
29030;SDS011;16122;50.236;11.734;2024-03-17T01:12:26;2.00;;;1.30;;
29030;SDS011;16122;50.236;11.734;2024-03-17T01:14:52;2.83;;;1.73;;
29030;SDS011;16122;50.236;11.734;2024-03-17T01:17:18;1.50;;;1.40;;
29030;SDS011;16122;50.236;11.734;2024-03-17T01:19:46;1.40;;;1.30;;
29030;SDS011;16122;50.236;11.734;2024-03-17T01:22:12;3.00;;;1.23;;
29030;SDS011;16122;50.236;11.734;2024-03-17T01:24:38;1.80;;;1.30;;
29030;SDS011;16122;50.236;11.734;2024-03-17T01:27:07;1.93;;;1.47;;
29030;SDS011;16122;50.236;11.734;2024-03-17T01:29:39;2.23;;;1.40;;
29030;SDS011;16122;50.236;11.734;2024-03-17T01:32:05;2.90;;;1.37;;
29030;SDS011;16122;50.236;11.734;2024-03-17T01:34:31;1.47;;;1.10;;
29030;SDS011;16122;50.236;11.734;2024-03-17T01:36:57;1.53;;;1.20;;
29030;SDS011;16122;50.236;11.734;2024-03-17T01:39:22;1.77;;;1.20;;
29030;SDS011;16122;50.236;11.734;2024-03-17T01:41:48;1.33;;;1.23;;
29030;SDS011;16122;50.236;11.734;2024-03-17T01:44:24;3.37;;;1.30;;
29030;SDS011;16122;50.236;11.734;2024-03-17T01:46:54;1.43;;;1.30;;
29030;SDS011;16122;50.236;11.734;2024-03-17T01:49:21;2.83;;;1.23;;
29030;SDS011;16122;50.236;11.734;2024-03-17T01:51:48;2.93;;;1.50;;
29030;SDS011;16122;50.236;11.734;2024-03-17T01:54:15;1.10;;;1.00;;
29030;SDS011;16122;50.236;11.734;2024-03-17T01:56:42;5.53;;;1.40;;
29030;SDS011;16122;50.236;11.734;2024-03-17T01:59:09;1.23;;;1.10;;
29030;SDS011;16122;50.236;11.734;2024-03-17T02:01:36;2.13;;;1.17;;
29030;SDS011;16122;50.236;11.734;2024-03-17T02:04:02;1.30;;;0.97;;
29030;SDS011;16122;50.236;11.734;2024-03-17T02:06:30;1.10;;;1.00;;
29030;SDS011;16122;50.236;11.734;2024-03-17T02:08:56;1.80;;;1.23;;
29030;SDS011;16122;50.236;11.734;2024-03-17T02:11:25;1.30;;;1.20;;
29030;SDS011;16122;50.236;11.734;2024-03-17T02:13:53;2.20;;;1.57;;
29030;SDS011;16122;50.236;11.734;2024-03-17T02:16:19;1.50;;;1.10;;
29030;SDS011;16122;50.236;11.734;2024-03-17T02:18:47;1.60;;;1.10;;
29030;SDS011;16122;50.236;11.734;2024-03-17T02:21:13;1.20;;;1.10;;
29030;SDS011;16122;50.236;11.734;2024-03-17T02:23:40;1.70;;;0.97;;
29030;SDS011;16122;50.236;11.734;2024-03-17T02:26:07;1.83;;;1.30;;
29030;SDS011;16122;50.236;11.734;2024-03-17T02:28:43;1.57;;;1.30;;
29030;SDS011;16122;50.236;11.734;2024-03-17T02:31:10;1.83;;;1.10;;
29030;SDS011;16122;50.236;11.734;2024-03-17T02:33:38;2.07;;;0.97;;
29030;SDS011;16122;50.236;11.734;2024-03-17T02:36:04;1.83;;;1.07;;
29030;SDS011;16122;50.236;11.734;2024-03-17T02:38:37;1.30;;;1.20;;
29030;SDS011;16122;50.236;11.734;2024-03-17T02:41:25;1.80;;;0.90;;
29030;SDS011;16122;50.236;11.734;2024-03-17T02:43:52;1.50;;;1.27;;
29030;SDS011;16122;50.236;11.734;2024-03-17T02:46:18;1.17;;;0.93;;
29030;SDS011;16122;50.236;11.734;2024-03-17T02:48:45;1.73;;;0.90;;
29030;SDS011;16122;50.236;11.734;2024-03-17T02:51:13;1.07;;;1.00;;
29030;SDS011;16122;50.236;11.734;2024-03-17T02:53:41;0.93;;;0.93;;
29030;SDS011;16122;50.236;11.734;2024-03-17T02:56:08;1.13;;;1.00;;
29030;SDS011;16122;50.236;11.734;2024-03-17T02:58:35;1.10;;;1.00;;
29030;SDS011;16122;50.236;11.734;2024-03-17T03:01:01;1.27;;;0.90;;
29030;SDS011;16122;50.236;11.734;2024-03-17T03:03:29;1.10;;;0.90;;
29030;SDS011;16122;50.236;11.734;2024-03-17T03:05:58;1.50;;;1.00;;
29030;SDS011;16122;50.236;11.734;2024-03-17T03:08:30;1.27;;;1.00;;
29030;SDS011;16122;50.236;11.734;2024-03-17T03:10:56;1.13;;;0.90;;
29030;SDS011;16122;50.236;11.734;2024-03-17T03:13:21;1.07;;;1.00;;
29030;SDS011;16122;50.236;11.734;2024-03-17T03:15:48;1.53;;;1.00;;
29030;SDS011;16122;50.236;11.734;2024-03-17T03:18:14;2.20;;;1.00;;
29030;SDS011;16122;50.236;11.734;2024-03-17T03:20:40;1.57;;;1.00;;
29030;SDS011;16122;50.236;11.734;2024-03-17T03:23:06;1.23;;;1.03;;
29030;SDS011;16122;50.236;11.734;2024-03-17T03:25:32;1.80;;;1.10;;
29030;SDS011;16122;50.236;11.734;2024-03-17T03:27:58;1.63;;;1.53;;
29030;SDS011;16122;50.236;11.734;2024-03-17T03:30:24;1.07;;;0.90;;
29030;SDS011;16122;50.236;11.734;2024-03-17T03:32:50;1.20;;;0.97;;
29030;SDS011;16122;50.236;11.734;2024-03-17T03:35:16;1.37;;;1.00;;
29030;SDS011;16122;50.236;11.734;2024-03-17T03:37:44;2.17;;;1.23;;
29030;SDS011;16122;50.236;11.734;2024-03-17T03:40:09;1.53;;;0.90;;
29030;SDS011;16122;50.236;11.734;2024-03-17T03:42:45;1.20;;;1.10;;
29030;SDS011;16122;50.236;11.734;2024-03-17T03:45:12;1.97;;;1.10;;
29030;SDS011;16122;50.236;11.734;2024-03-17T03:47:44;1.00;;;0.90;;
29030;SDS011;16122;50.236;11.734;2024-03-17T03:50:10;0.90;;;0.80;;
29030;SDS011;16122;50.236;11.734;2024-03-17T03:52:36;1.37;;;1.23;;
29030;SDS011;16122;50.236;11.734;2024-03-17T03:55:03;3.33;;;1.40;;
29030;SDS011;16122;50.236;11.734;2024-03-17T03:57:30;1.27;;;0.93;;
29030;SDS011;16122;50.236;11.734;2024-03-17T03:59:57;1.63;;;1.10;;
29030;SDS011;16122;50.236;11.734;2024-03-17T04:02:24;2.00;;;0.90;;
29030;SDS011;16122;50.236;11.734;2024-03-17T04:04:57;2.40;;;1.00;;
29030;SDS011;16122;50.236;11.734;2024-03-17T04:07:23;1.57;;;1.07;;
29030;SDS011;16122;50.236;11.734;2024-03-17T04:09:49;1.83;;;0.90;;
29030;SDS011;16122;50.236;11.734;2024-03-17T04:12:15;2.20;;;1.00;;
29030;SDS011;16122;50.236;11.734;2024-03-17T04:14:40;1.00;;;0.90;;
29030;SDS011;16122;50.236;11.734;2024-03-17T04:17:07;1.50;;;0.80;;
29030;SDS011;16122;50.236;11.734;2024-03-17T04:19:32;1.13;;;0.93;;
29030;SDS011;16122;50.236;11.734;2024-03-17T04:21:58;0.70;;;0.70;;
29030;SDS011;16122;50.236;11.734;2024-03-17T04:24:24;1.43;;;1.00;;
29030;SDS011;16122;50.236;11.734;2024-03-17T04:26:50;0.80;;;0.80;;
29030;SDS011;16122;50.236;11.734;2024-03-17T04:29:16;1.30;;;1.20;;
29030;SDS011;16122;50.236;11.734;2024-03-17T04:31:42;1.50;;;1.20;;
29030;SDS011;16122;50.236;11.734;2024-03-17T04:34:08;2.30;;;1.27;;
29030;SDS011;16122;50.236;11.734;2024-03-17T04:36:34;1.10;;;1.00;;
29030;SDS011;16122;50.236;11.734;2024-03-17T04:39:00;2.50;;;1.10;;
29030;SDS011;16122;50.236;11.734;2024-03-17T04:41:26;3.43;;;1.20;;
29030;SDS011;16122;50.236;11.734;2024-03-17T04:43:52;0.90;;;0.80;;
29030;SDS011;16122;50.236;11.734;2024-03-17T04:46:18;1.20;;;1.10;;
29030;SDS011;16122;50.236;11.734;2024-03-17T04:48:44;1.33;;;1.10;;
29030;SDS011;16122;50.236;11.734;2024-03-17T04:51:14;0.83;;;0.83;;
29030;SDS011;16122;50.236;11.734;2024-03-17T04:53:41;1.23;;;1.13;;
29030;SDS011;16122;50.236;11.734;2024-03-17T04:56:06;1.10;;;1.00;;
29030;SDS011;16122;50.236;11.734;2024-03-17T04:58:32;1.53;;;1.00;;
29030;SDS011;16122;50.236;11.734;2024-03-17T05:01:08;1.10;;;1.00;;
29030;SDS011;16122;50.236;11.734;2024-03-17T05:03:34;0.90;;;0.90;;
29030;SDS011;16122;50.236;11.734;2024-03-17T05:06:00;0.80;;;0.80;;
29030;SDS011;16122;50.236;11.734;2024-03-17T05:08:28;0.90;;;0.73;;
29030;SDS011;16122;50.236;11.734;2024-03-17T05:11:00;1.27;;;1.17;;
29030;SDS011;16122;50.236;11.734;2024-03-17T05:13:31;0.83;;;0.80;;
29030;SDS011;16122;50.236;11.734;2024-03-17T05:15:58;2.20;;;1.00;;
29030;SDS011;16122;50.236;11.734;2024-03-17T05:18:25;1.53;;;1.07;;
29030;SDS011;16122;50.236;11.734;2024-03-17T05:21:00;1.03;;;0.93;;
29030;SDS011;16122;50.236;11.734;2024-03-17T05:23:29;1.53;;;1.03;;
29030;SDS011;16122;50.236;11.734;2024-03-17T05:25:57;1.00;;;0.90;;
29030;SDS011;16122;50.236;11.734;2024-03-17T05:28:23;1.50;;;0.93;;
29030;SDS011;16122;50.236;11.734;2024-03-17T05:30:50;1.83;;;1.00;;
29030;SDS011;16122;50.236;11.734;2024-03-17T05:33:17;1.10;;;1.00;;
29030;SDS011;16122;50.236;11.734;2024-03-17T05:35:54;0.80;;;0.80;;
29030;SDS011;16122;50.236;11.734;2024-03-17T05:38:21;1.83;;;1.00;;
29030;SDS011;16122;50.236;11.734;2024-03-17T05:41:04;1.07;;;0.97;;
29030;SDS011;16122;50.236;11.734;2024-03-17T05:43:32;1.23;;;1.10;;
29030;SDS011;16122;50.236;11.734;2024-03-17T05:46:06;1.23;;;1.10;;
29030;SDS011;16122;50.236;11.734;2024-03-17T05:48:37;1.10;;;0.80;;
29030;SDS011;16122;50.236;11.734;2024-03-17T05:51:09;1.37;;;0.93;;
29030;SDS011;16122;50.236;11.734;2024-03-17T05:53:36;1.47;;;1.00;;
29030;SDS011;16122;50.236;11.734;2024-03-17T05:56:05;1.10;;;1.00;;
29030;SDS011;16122;50.236;11.734;2024-03-17T05:58:36;1.00;;;0.90;;
29030;SDS011;16122;50.236;11.734;2024-03-17T06:01:03;0.90;;;0.90;;
29030;SDS011;16122;50.236;11.734;2024-03-17T06:03:29;3.80;;;0.90;;
29030;SDS011;16122;50.236;11.734;2024-03-17T06:05:55;1.03;;;0.90;;
29030;SDS011;16122;50.236;11.734;2024-03-17T06:08:24;1.30;;;0.80;;
29030;SDS011;16122;50.236;11.734;2024-03-17T06:10:50;1.40;;;1.00;;
29030;SDS011;16122;50.236;11.734;2024-03-17T06:13:16;1.53;;;1.00;;
29030;SDS011;16122;50.236;11.734;2024-03-17T06:15:45;1.17;;;0.77;;
29030;SDS011;16122;50.236;11.734;2024-03-17T06:18:14;1.10;;;1.00;;
29030;SDS011;16122;50.236;11.734;2024-03-17T06:20:42;2.70;;;1.10;;
29030;SDS011;16122;50.236;11.734;2024-03-17T06:23:13;1.40;;;1.00;;
29030;SDS011;16122;50.236;11.734;2024-03-17T06:25:41;2.70;;;1.00;;
29030;SDS011;16122;50.236;11.734;2024-03-17T06:28:12;1.47;;;0.90;;
29030;SDS011;16122;50.236;11.734;2024-03-17T06:30:40;1.20;;;1.00;;
29030;SDS011;16122;50.236;11.734;2024-03-17T06:33:06;0.90;;;0.90;;
29030;SDS011;16122;50.236;11.734;2024-03-17T06:35:35;2.10;;;1.00;;
29030;SDS011;16122;50.236;11.734;2024-03-17T06:38:02;0.93;;;0.90;;
29030;SDS011;16122;50.236;11.734;2024-03-17T06:40:27;1.93;;;1.00;;
29030;SDS011;16122;50.236;11.734;2024-03-17T06:42:53;2.83;;;1.10;;
29030;SDS011;16122;50.236;11.734;2024-03-17T06:45:19;1.00;;;0.90;;
29030;SDS011;16122;50.236;11.734;2024-03-17T06:47:49;1.83;;;1.00;;
29030;SDS011;16122;50.236;11.734;2024-03-17T06:50:15;1.20;;;1.10;;
29030;SDS011;16122;50.236;11.734;2024-03-17T06:52:41;1.83;;;1.03;;
29030;SDS011;16122;50.236;11.734;2024-03-17T06:55:07;1.20;;;0.80;;
29030;SDS011;16122;50.236;11.734;2024-03-17T06:57:33;1.33;;;1.20;;
29030;SDS011;16122;50.236;11.734;2024-03-17T07:00:00;7.70;;;1.20;;
29030;SDS011;16122;50.236;11.734;2024-03-17T07:02:26;1.10;;;0.97;;
29030;SDS011;16122;50.236;11.734;2024-03-17T07:04:52;4.13;;;1.07;;
29030;SDS011;16122;50.236;11.734;2024-03-17T07:07:18;1.03;;;0.90;;
29030;SDS011;16122;50.236;11.734;2024-03-17T07:09:43;1.07;;;0.97;;
29030;SDS011;16122;50.236;11.734;2024-03-17T07:12:12;1.43;;;0.90;;
29030;SDS011;16122;50.236;11.734;2024-03-17T07:14:38;1.40;;;1.00;;
29030;SDS011;16122;50.236;11.734;2024-03-17T07:17:03;1.50;;;1.20;;
29030;SDS011;16122;50.236;11.734;2024-03-17T07:19:29;1.63;;;1.00;;
29030;SDS011;16122;50.236;11.734;2024-03-17T07:21:56;1.77;;;1.00;;
29030;SDS011;16122;50.236;11.734;2024-03-17T07:24:23;2.17;;;1.20;;
29030;SDS011;16122;50.236;11.734;2024-03-17T07:26:49;2.80;;;1.30;;
29030;SDS011;16122;50.236;11.734;2024-03-17T07:29:15;2.47;;;1.17;;
29030;SDS011;16122;50.236;11.734;2024-03-17T07:31:42;0.97;;;0.90;;
29030;SDS011;16122;50.236;11.734;2024-03-17T07:34:08;0.90;;;0.90;;
29030;SDS011;16122;50.236;11.734;2024-03-17T07:36:35;1.57;;;0.90;;
29030;SDS011;16122;50.236;11.734;2024-03-17T07:39:01;1.53;;;1.23;;
29030;SDS011;16122;50.236;11.734;2024-03-17T07:41:27;2.90;;;1.23;;
29030;SDS011;16122;50.236;11.734;2024-03-17T07:43:53;1.73;;;1.07;;
29030;SDS011;16122;50.236;11.734;2024-03-17T07:46:19;0.83;;;0.83;;
29030;SDS011;16122;50.236;11.734;2024-03-17T07:48:45;2.80;;;1.33;;
29030;SDS011;16122;50.236;11.734;2024-03-17T07:51:12;3.30;;;0.93;;
29030;SDS011;16122;50.236;11.734;2024-03-17T07:53:42;2.00;;;1.30;;
29030;SDS011;16122;50.236;11.734;2024-03-17T07:56:15;1.10;;;1.00;;
29030;SDS011;16122;50.236;11.734;2024-03-17T07:58:42;1.37;;;1.00;;
29030;SDS011;16122;50.236;11.734;2024-03-17T08:01:10;1.80;;;1.10;;
29030;SDS011;16122;50.236;11.734;2024-03-17T08:03:37;1.43;;;1.00;;
29030;SDS011;16122;50.236;11.734;2024-03-17T08:06:05;1.73;;;1.10;;
29030;SDS011;16122;50.236;11.734;2024-03-17T08:08:32;1.60;;;1.30;;
29030;SDS011;16122;50.236;11.734;2024-03-17T08:10:58;3.40;;;0.97;;
29030;SDS011;16122;50.236;11.734;2024-03-17T08:13:24;1.47;;;1.00;;
29030;SDS011;16122;50.236;11.734;2024-03-17T08:15:57;6.50;;;1.10;;
29030;SDS011;16122;50.236;11.734;2024-03-17T08:18:25;1.50;;;1.20;;
29030;SDS011;16122;50.236;11.734;2024-03-17T08:20:52;2.80;;;1.10;;
29030;SDS011;16122;50.236;11.734;2024-03-17T08:23:22;1.33;;;1.23;;
29030;SDS011;16122;50.236;11.734;2024-03-17T08:25:52;1.57;;;1.00;;
29030;SDS011;16122;50.236;11.734;2024-03-17T08:28:36;2.10;;;1.33;;
29030;SDS011;16122;50.236;11.734;2024-03-17T08:31:02;3.60;;;1.17;;
29030;SDS011;16122;50.236;11.734;2024-03-17T08:33:29;5.73;;;1.03;;
29030;SDS011;16122;50.236;11.734;2024-03-17T08:36:08;2.40;;;1.27;;
29030;SDS011;16122;50.236;11.734;2024-03-17T08:38:35;2.40;;;0.80;;
29030;SDS011;16122;50.236;11.734;2024-03-17T08:41:08;1.77;;;1.30;;
29030;SDS011;16122;50.236;11.734;2024-03-17T08:43:35;1.07;;;0.97;;
29030;SDS011;16122;50.236;11.734;2024-03-17T08:46:11;2.00;;;1.10;;
29030;SDS011;16122;50.236;11.734;2024-03-17T08:48:39;1.67;;;1.40;;
29030;SDS011;16122;50.236;11.734;2024-03-17T08:51:07;1.97;;;0.90;;
29030;SDS011;16122;50.236;11.734;2024-03-17T08:53:33;1.30;;;1.00;;
29030;SDS011;16122;50.236;11.734;2024-03-17T08:56:00;1.20;;;1.10;;
29030;SDS011;16122;50.236;11.734;2024-03-17T08:58:28;0.93;;;0.90;;
29030;SDS011;16122;50.236;11.734;2024-03-17T09:00:54;1.07;;;0.90;;
29030;SDS011;16122;50.236;11.734;2024-03-17T09:03:20;2.67;;;1.00;;
29030;SDS011;16122;50.236;11.734;2024-03-17T09:05:46;2.00;;;1.00;;
29030;SDS011;16122;50.236;11.734;2024-03-17T09:08:20;1.67;;;1.40;;
29030;SDS011;16122;50.236;11.734;2024-03-17T09:10:49;2.30;;;1.47;;
29030;SDS011;16122;50.236;11.734;2024-03-17T09:13:17;2.20;;;0.97;;
29030;SDS011;16122;50.236;11.734;2024-03-17T09:18:22;1.77;;;1.20;;
29030;SDS011;16122;50.236;11.734;2024-03-17T09:23:28;1.27;;;0.97;;
29030;SDS011;16122;50.236;11.734;2024-03-17T09:25:55;1.33;;;0.90;;
29030;SDS011;16122;50.236;11.734;2024-03-17T09:28:26;1.10;;;1.00;;
29030;SDS011;16122;50.236;11.734;2024-03-17T09:30:53;1.47;;;1.00;;
29030;SDS011;16122;50.236;11.734;2024-03-17T09:33:20;0.80;;;0.80;;
29030;SDS011;16122;50.236;11.734;2024-03-17T09:35:53;1.70;;;1.13;;
29030;SDS011;16122;50.236;11.734;2024-03-17T09:38:31;1.27;;;1.00;;
29030;SDS011;16122;50.236;11.734;2024-03-17T09:40:58;0.97;;;0.87;;
29030;SDS011;16122;50.236;11.734;2024-03-17T09:43:29;1.10;;;1.00;;
29030;SDS011;16122;50.236;11.734;2024-03-17T09:45:58;1.17;;;0.90;;
29030;SDS011;16122;50.236;11.734;2024-03-17T09:48:24;1.40;;;1.17;;
29030;SDS011;16122;50.236;11.734;2024-03-17T09:50:53;2.33;;;1.10;;
29030;SDS011;16122;50.236;11.734;2024-03-17T09:53:30;1.90;;;0.83;;
29030;SDS011;16122;50.236;11.734;2024-03-17T09:55:58;1.10;;;0.97;;
29030;SDS011;16122;50.236;11.734;2024-03-17T09:58:25;0.77;;;0.77;;
29030;SDS011;16122;50.236;11.734;2024-03-17T10:00:51;1.30;;;1.17;;
29030;SDS011;16122;50.236;11.734;2024-03-17T10:06:13;1.20;;;1.00;;
29030;SDS011;16122;50.236;11.734;2024-03-17T10:08:41;1.20;;;1.10;;
29030;SDS011;16122;50.236;11.734;2024-03-17T10:11:11;1.63;;;1.00;;
29030;SDS011;16122;50.236;11.734;2024-03-17T10:13:45;0.80;;;0.80;;
29030;SDS011;16122;50.236;11.734;2024-03-17T10:16:20;1.23;;;1.13;;
29030;SDS011;16122;50.236;11.734;2024-03-17T10:19:12;1.10;;;1.00;;
29030;SDS011;16122;50.236;11.734;2024-03-17T10:21:42;1.20;;;1.10;;
29030;SDS011;16122;50.236;11.734;2024-03-17T10:26:41;1.00;;;0.90;;
29030;SDS011;16122;50.236;11.734;2024-03-17T10:31:44;1.60;;;1.10;;
29030;SDS011;16122;50.236;11.734;2024-03-17T10:34:14;1.30;;;1.20;;
29030;SDS011;16122;50.236;11.734;2024-03-17T10:36:44;0.93;;;0.90;;
29030;SDS011;16122;50.236;11.734;2024-03-17T10:39:22;1.10;;;0.93;;
29030;SDS011;16122;50.236;11.734;2024-03-17T10:42:02;1.53;;;1.10;;
29030;SDS011;16122;50.236;11.734;2024-03-17T10:44:30;1.30;;;1.03;;
29030;SDS011;16122;50.236;11.734;2024-03-17T10:46:58;1.83;;;1.40;;
29030;SDS011;16122;50.236;11.734;2024-03-17T10:49:32;1.27;;;1.10;;
29030;SDS011;16122;50.236;11.734;2024-03-17T10:52:00;1.10;;;1.10;;
29030;SDS011;16122;50.236;11.734;2024-03-17T10:54:30;1.30;;;1.13;;
29030;SDS011;16122;50.236;11.734;2024-03-17T10:59:45;1.03;;;0.97;;
29030;SDS011;16122;50.236;11.734;2024-03-17T11:02:26;1.43;;;1.30;;
29030;SDS011;16122;50.236;11.734;2024-03-17T11:05:00;1.73;;;1.00;;
29030;SDS011;16122;50.236;11.734;2024-03-17T11:07:30;1.27;;;1.17;;
29030;SDS011;16122;50.236;11.734;2024-03-17T11:09:58;1.07;;;1.00;;
29030;SDS011;16122;50.236;11.734;2024-03-17T11:17:47;2.23;;;1.20;;
29030;SDS011;16122;50.236;11.734;2024-03-17T11:20:26;2.13;;;1.60;;
29030;SDS011;16122;50.236;11.734;2024-03-17T11:22:56;1.13;;;1.03;;
29030;SDS011;16122;50.236;11.734;2024-03-17T11:27:55;1.97;;;1.27;;
29030;SDS011;16122;50.236;11.734;2024-03-17T11:49:18;1.00;;;1.00;;
29030;SDS011;16122;50.236;11.734;2024-03-17T11:51:46;1.13;;;1.03;;
29030;SDS011;16122;50.236;11.734;2024-03-17T11:54:13;1.40;;;1.03;;
29030;SDS011;16122;50.236;11.734;2024-03-17T11:56:54;1.50;;;1.00;;
29030;SDS011;16122;50.236;11.734;2024-03-17T11:59:22;0.90;;;0.90;;
29030;SDS011;16122;50.236;11.734;2024-03-17T12:01:49;1.00;;;1.00;;
29030;SDS011;16122;50.236;11.734;2024-03-17T12:04:15;4.53;;;3.40;;
29030;SDS011;16122;50.236;11.734;2024-03-17T12:06:44;5.13;;;4.30;;
29030;SDS011;16122;50.236;11.734;2024-03-17T12:11:42;2.83;;;2.60;;
29030;SDS011;16122;50.236;11.734;2024-03-17T12:14:15;2.23;;;2.13;;
29030;SDS011;16122;50.236;11.734;2024-03-17T12:16:48;3.90;;;2.63;;
29030;SDS011;16122;50.236;11.734;2024-03-17T12:19:19;4.10;;;2.03;;
29030;SDS011;16122;50.236;11.734;2024-03-17T12:21:50;3.37;;;2.03;;
29030;SDS011;16122;50.236;11.734;2024-03-17T12:24:18;2.13;;;1.83;;
29030;SDS011;16122;50.236;11.734;2024-03-17T12:26:48;2.57;;;2.07;;
29030;SDS011;16122;50.236;11.734;2024-03-17T12:31:56;2.27;;;2.07;;
29030;SDS011;16122;50.236;11.734;2024-03-17T12:34:25;2.10;;;1.80;;
29030;SDS011;16122;50.236;11.734;2024-03-17T12:36:52;2.20;;;2.00;;
29030;SDS011;16122;50.236;11.734;2024-03-17T12:39:22;5.40;;;2.00;;
29030;SDS011;16122;50.236;11.734;2024-03-17T12:42:03;3.80;;;2.00;;
29030;SDS011;16122;50.236;11.734;2024-03-17T12:44:30;2.50;;;2.30;;
29030;SDS011;16122;50.236;11.734;2024-03-17T12:47:03;3.73;;;2.27;;
29030;SDS011;16122;50.236;11.734;2024-03-17T12:49:31;2.10;;;2.00;;
29030;SDS011;16122;50.236;11.734;2024-03-17T12:52:01;1.80;;;1.70;;
29030;SDS011;16122;50.236;11.734;2024-03-17T12:54:27;2.00;;;1.80;;
29030;SDS011;16122;50.236;11.734;2024-03-17T12:57:07;1.87;;;1.77;;
29030;SDS011;16122;50.236;11.734;2024-03-17T12:59:52;2.87;;;2.37;;
29030;SDS011;16122;50.236;11.734;2024-03-17T13:02:42;3.23;;;1.90;;
29030;SDS011;16122;50.236;11.734;2024-03-17T13:07:43;4.97;;;4.57;;
29030;SDS011;16122;50.236;11.734;2024-03-17T13:10:15;4.67;;;3.93;;
29030;SDS011;16122;50.236;11.734;2024-03-17T13:12:43;6.17;;;4.20;;
29030;SDS011;16122;50.236;11.734;2024-03-17T13:15:13;4.30;;;3.90;;
29030;SDS011;16122;50.236;11.734;2024-03-17T13:17:40;4.10;;;3.70;;
29030;SDS011;16122;50.236;11.734;2024-03-17T13:20:14;4.60;;;3.80;;
29030;SDS011;16122;50.236;11.734;2024-03-17T13:22:41;6.37;;;4.17;;
29030;SDS011;16122;50.236;11.734;2024-03-17T13:25:12;4.83;;;3.90;;
29030;SDS011;16122;50.236;11.734;2024-03-17T13:27:44;3.87;;;3.57;;
29030;SDS011;16122;50.236;11.734;2024-03-17T13:30:14;5.33;;;4.77;;
29030;SDS011;16122;50.236;11.734;2024-03-17T13:32:40;3.90;;;3.60;;
29030;SDS011;16122;50.236;11.734;2024-03-17T13:35:17;5.30;;;3.67;;
29030;SDS011;16122;50.236;11.734;2024-03-17T13:37:48;4.90;;;4.37;;
29030;SDS011;16122;50.236;11.734;2024-03-17T13:40:15;4.20;;;3.63;;
29030;SDS011;16122;50.236;11.734;2024-03-17T13:42:47;4.83;;;4.43;;
29030;SDS011;16122;50.236;11.734;2024-03-17T13:45:18;3.60;;;3.30;;
29030;SDS011;16122;50.236;11.734;2024-03-17T13:47:47;5.30;;;4.20;;
29030;SDS011;16122;50.236;11.734;2024-03-17T13:50:21;6.17;;;4.10;;
29030;SDS011;16122;50.236;11.734;2024-03-17T13:52:47;4.37;;;3.67;;
29030;SDS011;16122;50.236;11.734;2024-03-17T13:57:52;4.10;;;3.70;;
29030;SDS011;16122;50.236;11.734;2024-03-17T14:00:23;7.20;;;4.67;;
29030;SDS011;16122;50.236;11.734;2024-03-17T14:02:51;4.73;;;3.50;;
29030;SDS011;16122;50.236;11.734;2024-03-17T14:05:19;8.90;;;3.80;;
29030;SDS011;16122;50.236;11.734;2024-03-17T14:07:49;5.23;;;4.23;;
29030;SDS011;16122;50.236;11.734;2024-03-17T14:10:16;3.33;;;3.13;;
29030;SDS011;16122;50.236;11.734;2024-03-17T14:12:43;2.83;;;2.63;;
29030;SDS011;16122;50.236;11.734;2024-03-17T14:15:10;3.17;;;2.90;;
29030;SDS011;16122;50.236;11.734;2024-03-17T14:17:37;2.73;;;2.20;;
29030;SDS011;16122;50.236;11.734;2024-03-17T14:20:04;2.50;;;2.30;;
29030;SDS011;16122;50.236;11.734;2024-03-17T14:22:31;2.97;;;2.67;;
29030;SDS011;16122;50.236;11.734;2024-03-17T14:24:57;2.73;;;2.10;;
29030;SDS011;16122;50.236;11.734;2024-03-17T14:27:23;5.50;;;2.47;;
29030;SDS011;16122;50.236;11.734;2024-03-17T14:29:49;3.70;;;2.40;;
29030;SDS011;16122;50.236;11.734;2024-03-17T14:32:16;2.37;;;2.13;;
29030;SDS011;16122;50.236;11.734;2024-03-17T14:34:42;2.00;;;1.70;;
29030;SDS011;16122;50.236;11.734;2024-03-17T14:37:08;3.17;;;2.87;;
29030;SDS011;16122;50.236;11.734;2024-03-17T14:39:33;2.80;;;2.60;;
29030;SDS011;16122;50.236;11.734;2024-03-17T14:41:59;6.10;;;3.20;;
29030;SDS011;16122;50.236;11.734;2024-03-17T14:44:25;4.50;;;3.27;;
29030;SDS011;16122;50.236;11.734;2024-03-17T14:46:51;4.03;;;3.73;;
29030;SDS011;16122;50.236;11.734;2024-03-17T14:49:17;3.67;;;3.37;;
29030;SDS011;16122;50.236;11.734;2024-03-17T14:51:43;3.80;;;3.50;;
29030;SDS011;16122;50.236;11.734;2024-03-17T14:54:09;2.67;;;2.47;;
29030;SDS011;16122;50.236;11.734;2024-03-17T14:56:35;2.53;;;2.30;;
29030;SDS011;16122;50.236;11.734;2024-03-17T14:59:01;3.37;;;2.20;;
29030;SDS011;16122;50.236;11.734;2024-03-17T15:01:27;2.23;;;2.03;;
29030;SDS011;16122;50.236;11.734;2024-03-17T15:03:56;4.93;;;2.27;;
29030;SDS011;16122;50.236;11.734;2024-03-17T15:06:22;1.97;;;1.80;;
29030;SDS011;16122;50.236;11.734;2024-03-17T15:08:48;2.80;;;1.90;;
29030;SDS011;16122;50.236;11.734;2024-03-17T15:11:14;2.00;;;1.90;;
29030;SDS011;16122;50.236;11.734;2024-03-17T15:13:40;2.90;;;2.00;;
29030;SDS011;16122;50.236;11.734;2024-03-17T15:16:08;3.30;;;1.93;;
29030;SDS011;16122;50.236;11.734;2024-03-17T15:18:33;3.10;;;2.03;;
29030;SDS011;16122;50.236;11.734;2024-03-17T15:21:02;2.20;;;2.10;;
29030;SDS011;16122;50.236;11.734;2024-03-17T15:23:35;2.80;;;1.80;;
29030;SDS011;16122;50.236;11.734;2024-03-17T15:26:04;2.37;;;1.70;;
29030;SDS011;16122;50.236;11.734;2024-03-17T15:28:38;2.00;;;1.67;;
29030;SDS011;16122;50.236;11.734;2024-03-17T15:31:08;2.60;;;1.80;;
29030;SDS011;16122;50.236;11.734;2024-03-17T15:33:35;1.70;;;1.60;;